Time;durP1;ratioP1;P1;durP2;ratioP2;P2;SDS_P1;SDS_P2;PMS_P1;PMS_P2;Temp;Humidity;BMP_temperature;BMP_pressure;BME280_temperature;BME280_humidity;BME280_pressure;Samples;Min_cycle;Max_cycle;Signal;HPM_P1;HPM_P2
2021/08/23 00:00:09;;;;;;;8.27;5.27;;;;;;;;;;10363474;28;20040;-62
2021/08/23 00:05:07;;;;;;;10.73;6.10;;;;;;;;;;10362275;28;20033;-62
2021/08/23 00:10:04;;;;;;;8.37;4.53;;;;;;;;;;10370299;28;20123;-62
2021/08/23 00:15:02;;;;;;;10.23;7.57;;;;;;;;;;10370162;28;20287;-62
2021/08/23 00:20:00;;;;;;;12.82;6.75;;;;;;;;;;10367578;28;20043;-61
2021/08/23 00:24:59;;;;;;;7.60;4.73;;;;;;;;;;10363839;28;20039;-61
2021/08/23 00:29:56;;;;;;;7.22;4.20;;;;;;;;;;10363078;28;20055;-60
2021/08/23 00:34:54;;;;;;;8.57;6.40;;;;;;;;;;10374221;28;20141;-61
2021/08/23 00:39:52;;;;;;;16.00;6.90;;;;;;;;;;10375138;28;20044;-61
2021/08/23 00:44:49;;;;;;;10.98;6.55;;;;;;;;;;10383682;28;20027;-61
2021/08/23 00:49:47;;;;;;;13.63;6.13;;;;;;;;;;10378481;28;20021;-59
2021/08/23 00:54:44;;;;;;;4.57;3.03;;;;;;;;;;10378257;28;20082;-61
2021/08/23 00:59:42;;;;;;;13.23;6.63;;;;;;;;;;10382584;28;20370;-60
2021/08/23 01:04:42;;;;;;;2.47;1.30;;;;;;;;;;10377572;28;20031;-62
2021/08/23 01:09:42;;;;;;;3.03;1.15;;;;;;;;;;10385484;28;20038;-63
2021/08/23 01:14:40;;;;;;;8.40;2.28;;;;;;;;;;10389228;28;20024;-63
2021/08/23 01:19:40;;;;;;;5.25;3.65;;;;;;;;;;10381861;28;20028;-63
2021/08/23 01:24:39;;;;;;;6.13;3.80;;;;;;;;;;10383805;28;20527;-62
2021/08/23 01:29:46;;;;;;;7.72;4.55;;;;;;;;;;10401428;28;20048;-64
2021/08/23 01:34:45;;;;;;;12.35;5.13;;;;;;;;;;10373115;28;20809;-62
2021/08/23 01:39:45;;;;;;;13.63;6.20;;;;;;;;;;10375871;28;20056;-62
2021/08/23 01:44:43;;;;;;;11.15;6.38;;;;;;;;;;10364628;28;20535;-61
2021/08/23 01:49:40;;;;;;;9.98;4.60;;;;;;;;;;10388995;28;20032;-62
2021/08/23 01:54:42;;;;;;;13.07;5.50;;;;;;;;;;10383667;28;20024;-64
2021/08/23 01:59:40;;;;;;;10.35;5.55;;;;;;;;;;10367093;28;20036;-61
2021/08/23 02:04:37;;;;;;;15.10;6.05;;;;;;;;;;10375800;28;20054;-62
2021/08/23 02:09:35;;;;;;;11.13;5.55;;;;;;;;;;10365924;23;20052;-64
2021/08/23 02:14:33;;;;;;;4.53;3.33;;;;;;;;;;10342443;28;20044;-67
2021/08/23 02:19:30;;;;;;;10.83;5.73;;;;;;;;;;10348555;28;20033;-66
2021/08/23 02:24:28;;;;;;;12.87;5.83;;;;;;;;;;10348655;28;20036;-63
2021/08/23 02:29:26;;;;;;;4.05;2.03;;;;;;;;;;10348031;28;20044;-65
2021/08/23 02:34:23;;;;;;;8.80;3.97;;;;;;;;;;10329682;28;20037;-65
2021/08/23 02:39:21;;;;;;;11.57;5.50;;;;;;;;;;10347571;28;20056;-63
2021/08/23 02:44:18;;;;;;;8.37;5.27;;;;;;;;;;10327686;28;20037;-66
2021/08/23 02:49:16;;;;;;;8.27;4.43;;;;;;;;;;10347004;28;20041;-64
2021/08/23 02:54:13;;;;;;;5.68;3.40;;;;;;;;;;10345042;28;20045;-63
2021/08/23 02:59:11;;;;;;;6.67;4.23;;;;;;;;;;10347778;28;20060;-65
2021/08/23 03:04:08;;;;;;;9.33;4.20;;;;;;;;;;10331089;28;20041;-66
2021/08/23 03:09:06;;;;;;;12.30;3.30;;;;;;;;;;10349193;28;20140;-66
2021/08/23 03:14:04;;;;;;;6.47;3.67;;;;;;;;;;10330598;28;20037;-65
2021/08/23 03:19:02;;;;;;;6.10;3.23;;;;;;;;;;10347863;28;20025;-66
2021/08/23 03:23:59;;;;;;;5.87;3.33;;;;;;;;;;10347471;28;20502;-63
2021/08/23 03:28:56;;;;;;;4.53;2.87;;;;;;;;;;10347168;28;20781;-66
2021/08/23 03:33:54;;;;;;;1.27;1.17;;;;;;;;;;10347206;28;20048;-62
2021/08/23 03:38:52;;;;;;;2.85;1.35;;;;;;;;;;10347069;28;20025;-63
2021/08/23 03:43:49;;;;;;;5.40;1.80;;;;;;;;;;10346767;28;20040;-65
2021/08/23 03:48:47;;;;;;;6.63;2.70;;;;;;;;;;10328593;28;20036;-62
2021/08/23 03:53:44;;;;;;;6.07;2.50;;;;;;;;;;10328569;28;20033;-66
2021/08/23 03:58:42;;;;;;;1.37;1.20;;;;;;;;;;10328645;28;20037;-66
2021/08/23 04:03:39;;;;;;;4.37;2.23;;;;;;;;;;10327927;28;20029;-63
2021/08/23 04:08:37;;;;;;;7.90;2.50;;;;;;;;;;10345844;28;20094;-66
2021/08/23 04:13:35;;;;;;;5.73;2.23;;;;;;;;;;10327559;28;20082;-65
2021/08/23 04:18:32;;;;;;;7.03;2.80;;;;;;;;;;10311066;28;20040;-64
2021/08/23 04:23:30;;;;;;;9.07;2.87;;;;;;;;;;10345503;28;20063;-64
2021/08/23 04:28:27;;;;;;;6.30;2.60;;;;;;;;;;10345314;28;20036;-65
2021/08/23 04:33:25;;;;;;;5.43;2.90;;;;;;;;;;10327444;28;20124;-66
2021/08/23 04:38:22;;;;;;;5.50;1.40;;;;;;;;;;10344639;28;20047;-66
2021/08/23 04:43:19;;;;;;;4.00;1.50;;;;;;;;;;10310548;28;20037;-65
2021/08/23 04:48:17;;;;;;;5.07;2.40;;;;;;;;;;10344405;28;20495;-64
2021/08/23 04:53:14;;;;;;;1.70;1.40;;;;;;;;;;10326214;28;20037;-63
2021/08/23 04:58:12;;;;;;;5.93;2.73;;;;;;;;;;10344011;28;20037;-65
2021/08/23 05:03:11;;;;;;;4.40;2.10;;;;;;;;;;10343756;28;20032;-64
2021/08/23 05:08:08;;;;;;;;;;;;;;;;;;10324579;28;20048;-65
2021/08/23 05:13:05;;;;;;;1.63;0.90;;;;;;;;;;10343234;28;19922;-63
2021/08/23 05:18:03;;;;;;;1.07;0.83;;;;;;;;;;10341901;28;20302;-65
2021/08/23 05:23:00;;;;;;;2.20;0.87;;;;;;;;;;10342878;28;20041;-64
2021/08/23 05:27:58;;;;;;;2.57;0.80;;;;;;;;;;10341333;28;20037;-67
2021/08/23 05:32:56;;;;;;;2.67;0.73;;;;;;;;;;10342621;28;20088;-66
2021/08/23 05:37:54;;;;;;;2.00;0.73;;;;;;;;;;10304685;28;20531;-67
2021/08/23 05:42:51;;;;;;;1.63;0.77;;;;;;;;;;10324606;28;20453;-65
2021/08/23 05:47:49;;;;;;;1.80;0.70;;;;;;;;;;10341315;28;20136;-66
2021/08/23 05:52:46;;;;;;;1.93;0.50;;;;;;;;;;10329303;28;20132;-66
2021/08/23 05:57:44;;;;;;;1.43;0.70;;;;;;;;;;10349120;28;20076;-65
2021/08/23 06:02:41;;;;;;;1.27;0.73;;;;;;;;;;10350869;28;20041;-67
2021/08/23 06:07:39;;;;;;;1.20;0.60;;;;;;;;;;10349969;28;20069;-66
2021/08/23 06:12:37;;;;;;;0.38;0.15;;;;;;;;;;10333681;28;20041;-65
2021/08/23 06:17:34;;;;;;;0.30;0.30;;;;;;;;;;10350508;28;20558;-67
2021/08/23 06:22:32;;;;;;;2.03;0.60;;;;;;;;;;10350441;28;20040;-67
2021/08/23 06:27:30;;;;;;;1.77;0.68;;;;;;;;;;10350501;28;20439;-67
2021/08/23 06:32:27;;;;;;;2.27;0.60;;;;;;;;;;10349558;28;20124;-67
2021/08/23 06:37:25;;;;;;;4.33;0.70;;;;;;;;;;10332350;28;20101;-68
2021/08/23 06:42:22;;;;;;;1.97;0.80;;;;;;;;;;10350849;28;20421;-69
2021/08/23 06:47:20;;;;;;;0.83;0.40;;;;;;;;;;10350928;28;20033;-68
2021/08/23 06:52:17;;;;;;;0.97;0.50;;;;;;;;;;10350597;28;20281;-68
2021/08/23 06:57:15;;;;;;;0.70;0.50;;;;;;;;;;10349867;28;20029;-69
2021/08/23 07:02:12;;;;;;;1.83;0.60;;;;;;;;;;10348559;28;20029;-68
2021/08/23 07:07:09;;;;;;;1.10;0.53;;;;;;;;;;10347223;28;20087;-69
2021/08/23 07:12:07;;;;;;;3.67;0.40;;;;;;;;;;10330657;28;20056;-65
2021/08/23 07:17:06;;;;;;;0.88;0.57;;;;;;;;;;10347270;28;20033;-69
2021/08/23 07:22:03;;;;;;;2.25;0.60;;;;;;;;;;10347942;28;20427;-68
2021/08/23 07:27:04;;;;;;;1.67;0.50;;;;;;;;;;10347585;28;20086;-67
2021/08/23 07:32:01;;;;;;;0.30;0.20;;;;;;;;;;10347764;28;20032;-68
2021/08/23 07:36:59;;;;;;;3.00;0.30;;;;;;;;;;10347467;28;20166;-68
2021/08/23 07:41:56;;;;;;;0.40;0.40;;;;;;;;;;10347897;28;20072;-68
2021/08/23 07:46:54;;;;;;;2.17;0.40;;;;;;;;;;10346625;28;20037;-67
2021/08/23 07:51:52;;;;;;;1.40;0.65;;;;;;;;;;10346360;28;20483;-65
2021/08/23 07:56:49;;;;;;;2.23;0.83;;;;;;;;;;10328392;28;20091;-67
2021/08/23 08:01:47;;;;;;;2.77;0.47;;;;;;;;;;10328917;28;20095;-67
2021/08/23 08:06:45;;;;;;;0.43;0.40;;;;;;;;;;10312792;28;20033;-66
2021/08/23 08:11:42;;;;;;;0.40;0.30;;;;;;;;;;10328152;28;20091;-68
2021/08/23 08:16:39;;;;;;;2.13;0.40;;;;;;;;;;10344525;28;20049;-66
2021/08/23 08:21:37;;;;;;;;;;;;;;;;;;10346084;28;20033;-70
2021/08/23 08:26:34;;;;;;;0.32;0.30;;;;;;;;;;10344337;28;19915;-64
2021/08/23 08:31:31;;;;;;;;;;;;;;;;;;10345735;28;20025;-65
2021/08/23 08:36:29;;;;;;;0.63;0.63;;;;;;;;;;10344806;28;20386;-68
2021/08/23 08:41:30;;;;;;;;;;;;;;;;;;10344557;28;20025;-68
2021/08/23 08:46:28;;;;;;;0.82;0.22;;;;;;;;;;10340118;28;19908;-67
2021/08/23 08:51:25;;;;;;;;;;;;;;;;;;10340426;28;20033;-67
2021/08/23 08:56:22;;;;;;;0.30;0.30;;;;;;;;;;10343374;28;19988;-67
2021/08/23 09:01:20;;;;;;;;;;;;;;;;;;10343647;28;20784;-63
2021/08/23 09:06:17;;;;;;;1.10;0.70;;;;;;;;;;10343496;28;19917;-65
2021/08/23 09:11:16;;;;;;;2.13;0.67;;;;;;;;;;10343544;28;20044;-63
2021/08/23 09:16:13;;;;;;;0.32;0.10;;;;;;;;;;10291905;28;20378;-65
2021/08/23 09:21:11;;;;;;;2.10;0.10;;;;;;;;;;10289648;28;20083;-65
2021/08/23 09:26:16;;;;;;;1.40;0.53;;;;;;;;;;10284518;28;20704;-65
2021/08/23 09:31:13;;;;;;;0.32;0.32;;;;;;;;;;10267756;28;20296;-64
2021/08/23 09:36:11;;;;;;;1.33;0.37;;;;;;;;;;10246862;28;20072;-65
2021/08/23 09:41:10;;;;;;;0.30;0.28;;;;;;;;;;10270346;28;20099;-65
2021/08/23 09:46:11;;;;;;;1.38;0.65;;;;;;;;;;10281365;28;20131;-65
2021/08/23 09:51:08;;;;;;;3.83;0.55;;;;;;;;;;10262926;28;20139;-64
2021/08/23 09:56:06;;;;;;;0.57;0.30;;;;;;;;;;10257233;28;20121;-65
2021/08/23 10:01:03;;;;;;;0.43;0.38;;;;;;;;;;10269482;28;20852;-65
2021/08/23 10:06:01;;;;;;;0.20;0.20;;;;;;;;;;10262792;28;20037;-66
2021/08/23 10:10:58;;;;;;;0.10;0.10;;;;;;;;;;10271361;28;20042;-64
2021/08/23 10:15:56;;;;;;;0.25;0.17;;;;;;;;;;10282882;28;20092;-65
2021/08/23 10:20:53;;;;;;;0.00;0.00;;;;;;;;;;10272270;28;20519;-66
2021/08/23 10:25:51;;;;;;;0.30;0.30;;;;;;;;;;10266497;28;20295;-66
2021/08/23 10:30:50;;;;;;;0.60;0.20;;;;;;;;;;10272442;28;20057;-65
2021/08/23 10:35:53;;;;;;;0.17;0.17;;;;;;;;;;10255261;28;20132;-66
2021/08/23 10:41:06;;;;;;;2.08;0.77;;;;;;;;;;10258510;28;20246;-65
2021/08/23 10:46:03;;;;;;;5.00;0.88;;;;;;;;;;10216937;28;20587;-67
2021/08/23 10:51:02;;;;;;;0.98;0.32;;;;;;;;;;10229311;28;20033;-66
2021/08/23 10:56:11;;;;;;;1.60;0.80;;;;;;;;;;10267544;28;20033;-66
2021/08/23 11:01:16;;;;;;;0.50;0.38;;;;;;;;;;10240702;28;20050;-66
2021/08/23 11:06:13;;;;;;;2.60;1.20;;;;;;;;;;10262307;28;20048;-65
2021/08/23 11:11:12;;;;;;;0.73;0.67;;;;;;;;;;10274221;28;20049;-65
2021/08/23 11:16:09;;;;;;;3.17;0.47;;;;;;;;;;10257199;28;20664;-66
2021/08/23 11:21:07;;;;;;;2.05;0.80;;;;;;;;;;10278029;28;20034;-66
2021/08/23 11:26:04;;;;;;;4.20;1.08;;;;;;;;;;10262933;28;20044;-64
2021/08/23 11:31:04;;;;;;;0.45;0.43;;;;;;;;;;10252844;28;20034;-65
2021/08/23 11:36:22;;;;;;;2.67;0.90;;;;;;;;;;10255983;28;20030;-64
2021/08/23 11:41:20;;;;;;;1.83;1.17;;;;;;;;;;10237389;28;20038;-65
2021/08/23 11:46:17;;;;;;;2.53;0.83;;;;;;;;;;10261804;28;20033;-65
2021/08/23 11:51:25;;;;;;;1.25;0.77;;;;;;;;;;10251784;28;20774;-65
2021/08/23 11:56:22;;;;;;;3.58;1.00;;;;;;;;;;10276271;28;20041;-65
2021/08/23 12:01:20;;;;;;;3.83;1.60;;;;;;;;;;10272440;28;20041;-64
2021/08/23 12:06:17;;;;;;;1.57;0.80;;;;;;;;;;10255855;28;20379;-65
2021/08/23 12:11:17;;;;;;;1.63;0.90;;;;;;;;;;10275829;28;20780;-64
2021/08/23 12:16:16;;;;;;;0.93;0.60;;;;;;;;;;10259485;28;20396;-65
2021/08/23 12:21:16;;;;;;;1.17;0.77;;;;;;;;;;10266764;28;20173;-64
2021/08/23 12:26:15;;;;;;;1.33;0.52;;;;;;;;;;10264120;28;20042;-64
2021/08/23 12:31:13;;;;;;;1.23;0.85;;;;;;;;;;10268540;28;20049;-64
2021/08/23 12:36:11;;;;;;;1.60;0.63;;;;;;;;;;10281090;28;20507;-65
2021/08/23 12:41:08;;;;;;;0.35;0.28;;;;;;;;;;10299710;28;20597;-64
2021/08/23 12:46:06;;;;;;;1.60;1.10;;;;;;;;;;10280723;28;20037;-65
2021/08/23 12:51:04;;;;;;;1.10;0.90;;;;;;;;;;10281780;28;20280;-65
2021/08/23 12:56:01;;;;;;;0.88;0.50;;;;;;;;;;10283032;28;20029;-65
2021/08/23 13:00:59;;;;;;;1.00;0.57;;;;;;;;;;10278320;28;20033;-61
2021/08/23 13:05:56;;;;;;;2.67;0.63;;;;;;;;;;10280718;28;20048;-64
2021/08/23 13:10:54;;;;;;;1.10;0.57;;;;;;;;;;10298520;28;20045;-64
2021/08/23 13:15:51;;;;;;;0.60;0.30;;;;;;;;;;10296115;28;20091;-64
2021/08/23 13:20:49;;;;;;;0.70;0.30;;;;;;;;;;10280869;28;20038;-64
2021/08/23 13:25:46;;;;;;;0.60;0.57;;;;;;;;;;10296411;28;20052;-63
2021/08/23 13:30:43;;;;;;;1.00;0.37;;;;;;;;;;10263841;28;20802;-64
2021/08/23 13:35:42;;;;;;;1.70;0.20;;;;;;;;;;10267707;28;20211;-64
2021/08/23 13:40:40;;;;;;;1.75;0.40;;;;;;;;;;10283542;28;20299;-65
2021/08/23 13:45:38;;;;;;;0.93;0.30;;;;;;;;;;10237645;28;20048;-65
2021/08/23 13:50:36;;;;;;;2.97;0.57;;;;;;;;;;10265680;28;20034;-65
2021/08/23 13:55:34;;;;;;;1.13;0.40;;;;;;;;;;10243663;28;20408;-65
2021/08/23 14:00:31;;;;;;;0.82;0.77;;;;;;;;;;10264982;28;20168;-64
2021/08/23 14:05:29;;;;;;;0.55;0.40;;;;;;;;;;10273493;28;20356;-65
2021/08/23 14:10:26;;;;;;;0.87;0.27;;;;;;;;;;10276590;28;20050;-65
2021/08/23 14:15:24;;;;;;;1.27;0.70;;;;;;;;;;10254392;28;20044;-65
2021/08/23 14:20:23;;;;;;;0.38;0.10;;;;;;;;;;10287085;28;20306;-63
2021/08/23 14:25:21;;;;;;;1.07;0.70;;;;;;;;;;10304191;28;20048;-62
2021/08/23 14:30:18;;;;;;;0.30;0.30;;;;;;;;;;10303439;28;20314;-64
2021/08/23 14:35:16;;;;;;;1.20;0.70;;;;;;;;;;10302499;28;20292;-62
2021/08/23 14:40:13;;;;;;;0.67;0.53;;;;;;;;;;10268278;28;20096;-63
2021/08/23 14:45:11;;;;;;;0.77;0.73;;;;;;;;;;10303284;28;20069;-64
2021/08/23 14:50:09;;;;;;;1.90;0.30;;;;;;;;;;10302825;28;20079;-64
2021/08/23 14:55:07;;;;;;;0.90;0.70;;;;;;;;;;10285280;28;20045;-64
2021/08/23 15:00:05;;;;;;;1.67;0.30;;;;;;;;;;10284796;28;20041;-63
2021/08/23 15:05:03;;;;;;;0.73;0.40;;;;;;;;;;10302778;28;20037;-65
2021/08/23 15:10:00;;;;;;;0.55;0.20;;;;;;;;;;10284618;28;20060;-65
2021/08/23 15:14:58;;;;;;;0.93;0.50;;;;;;;;;;10285400;28;20052;-64
2021/08/23 15:19:55;;;;;;;0.85;0.50;;;;;;;;;;10285231;28;20351;-64
2021/08/23 15:24:53;;;;;;;0.80;0.33;;;;;;;;;;10301921;28;20389;-60
2021/08/23 15:29:50;;;;;;;1.17;0.43;;;;;;;;;;10302041;28;20567;-64
2021/08/23 15:34:48;;;;;;;0.57;0.50;;;;;;;;;;10301625;28;20092;-63
2021/08/23 15:39:45;;;;;;;0.60;0.40;;;;;;;;;;10284377;28;20065;-60
2021/08/23 15:44:43;;;;;;;1.03;0.47;;;;;;;;;;10283694;28;20281;-64
2021/08/23 15:49:40;;;;;;;0.73;0.43;;;;;;;;;;10283871;28;20097;-63
2021/08/23 15:54:38;;;;;;;0.97;0.53;;;;;;;;;;10301362;28;20090;-64
2021/08/23 15:59:35;;;;;;;0.50;0.40;;;;;;;;;;10301827;28;20227;-64
2021/08/23 16:04:36;;;;;;;0.60;0.50;;;;;;;;;;10284467;28;20265;-63
2021/08/23 16:09:35;;;;;;;3.80;0.70;;;;;;;;;;10300862;28;20045;-64
2021/08/23 16:14:33;;;;;;;1.77;0.50;;;;;;;;;;10301255;28;20033;-64
2021/08/23 16:19:30;;;;;;;0.85;0.32;;;;;;;;;;10300653;28;20044;-62
2021/08/23 16:24:30;;;;;;;1.70;0.60;;;;;;;;;;10301005;28;20046;-65
2021/08/23 16:29:28;;;;;;;1.38;0.40;;;;;;;;;;10282298;28;20095;-64
2021/08/23 16:34:26;;;;;;;0.38;0.38;;;;;;;;;;10299246;28;20030;-63
2021/08/23 16:39:24;;;;;;;0.40;0.10;;;;;;;;;;10282645;28;20033;-64
2021/08/23 16:44:22;;;;;;;0.90;0.47;;;;;;;;;;10299966;28;20045;-64
2021/08/23 16:49:20;;;;;;;0.73;0.35;;;;;;;;;;10297709;28;20044;-64
2021/08/23 16:54:17;;;;;;;1.83;0.68;;;;;;;;;;10299670;28;20045;-64
2021/08/23 16:59:15;;;;;;;0.60;0.30;;;;;;;;;;10300552;28;20041;-64
2021/08/23 17:04:12;;;;;;;3.87;0.50;;;;;;;;;;10282698;28;20060;-64
2021/08/23 17:09:10;;;;;;;4.68;1.52;;;;;;;;;;10281756;28;20285;-64
2021/08/23 17:14:08;;;;;;;4.35;1.23;;;;;;;;;;10289249;28;20026;-64
2021/08/23 17:19:05;;;;;;;1.70;0.50;;;;;;;;;;10265113;28;20049;-62
2021/08/23 17:24:03;;;;;;;0.87;0.40;;;;;;;;;;10280443;28;20368;-64
2021/08/23 17:29:00;;;;;;;1.08;0.32;;;;;;;;;;10299101;28;20295;-63
2021/08/23 17:33:58;;;;;;;0.53;0.53;;;;;;;;;;10299092;28;20387;-63
2021/08/23 17:38:55;;;;;;;0.77;0.47;;;;;;;;;;10299288;28;20280;-64
2021/08/23 17:43:52;;;;;;;0.50;0.27;;;;;;;;;;10299405;28;20326;-64
2021/08/23 17:48:50;;;;;;;0.50;0.50;;;;;;;;;;10298877;28;20389;-63
2021/08/23 17:53:47;;;;;;;1.53;0.80;;;;;;;;;;10299131;28;20265;-63
2021/08/23 17:58:45;;;;;;;0.60;0.52;;;;;;;;;;10297980;28;20099;-62
2021/08/23 18:03:42;;;;;;;1.33;0.50;;;;;;;;;;10264656;28;20032;-64
2021/08/23 18:08:40;;;;;;;0.57;0.50;;;;;;;;;;10279405;28;20037;-60
2021/08/23 18:13:37;;;;;;;1.92;0.52;;;;;;;;;;10288751;28;20770;-63
2021/08/23 18:18:35;;;;;;;0.75;0.40;;;;;;;;;;10280743;28;20041;-62
2021/08/23 18:23:33;;;;;;;2.10;0.52;;;;;;;;;;10280133;28;20532;-61
2021/08/23 18:28:30;;;;;;;0.30;0.20;;;;;;;;;;10296813;28;20469;-63
2021/08/23 18:33:28;;;;;;;2.20;0.73;;;;;;;;;;10297282;28;20399;-64
2021/08/23 18:38:25;;;;;;;1.65;0.32;;;;;;;;;;10297610;28;20069;-64
2021/08/23 18:43:25;;;;;;;2.67;0.60;;;;;;;;;;10278068;28;20495;-64
2021/08/23 18:48:23;;;;;;;0.77;0.57;;;;;;;;;;10265516;28;20539;-63
2021/08/23 18:53:21;;;;;;;;;;;;;;;;;;10279902;28;20513;-63
2021/08/23 18:58:20;;;;;;;1.77;1.30;;;;;;;;;;10298781;28;20290;-62
2021/08/23 19:03:19;;;;;;;2.58;0.60;;;;;;;;;;10309217;28;20033;-61
2021/08/23 19:08:16;;;;;;;0.85;0.40;;;;;;;;;;10305118;28;20033;-65
2021/08/23 19:13:14;;;;;;;;;;;;;;;;;;10279362;28;20072;-63
2021/08/23 19:18:11;;;;;;;3.28;0.88;;;;;;;;;;10256461;28;20003;-63
2021/08/23 19:23:08;;;;;;;;;;;;;;;;;;10270543;28;20492;-63
2021/08/23 19:28:06;;;;;;;2.60;0.75;;;;;;;;;;10278928;28;19921;-63
2021/08/23 19:33:03;;;;;;;;;;;;;;;;;;10250062;28;20534;-64
2021/08/23 19:38:01;;;;;;;0.97;0.27;;;;;;;;;;10254229;28;20000;-64
2021/08/23 19:43:00;;;;;;;0.30;0.30;;;;;;;;;;10278496;28;20030;-63
2021/08/23 19:47:58;;;;;;;0.53;0.47;;;;;;;;;;10274048;28;20042;-63
2021/08/23 19:52:55;;;;;;;0.60;0.50;;;;;;;;;;10277396;28;20092;-62
2021/08/23 19:57:56;;;;;;;2.37;0.70;;;;;;;;;;10279084;28;20162;-63
2021/08/23 20:02:55;;;;;;;2.63;0.77;;;;;;;;;;10276016;28;20562;-63
2021/08/23 20:07:52;;;;;;;2.53;0.57;;;;;;;;;;10283941;28;20651;-63
2021/08/23 20:12:50;;;;;;;6.40;1.63;;;;;;;;;;10287774;28;20108;-62
2021/08/23 20:17:48;;;;;;;3.78;1.05;;;;;;;;;;10299946;28;20046;-62
2021/08/23 20:22:47;;;;;;;6.63;1.65;;;;;;;;;;10264346;28;20029;-63
2021/08/23 20:27:44;;;;;;;3.22;1.35;;;;;;;;;;10284949;28;20069;-64
2021/08/23 20:32:42;;;;;;;3.58;1.67;;;;;;;;;;10273594;28;20042;-63
2021/08/23 20:37:51;;;;;;;4.03;1.70;;;;;;;;;;10296301;28;20102;-63
2021/08/23 20:42:50;;;;;;;1.83;1.05;;;;;;;;;;10310836;28;20077;-63
2021/08/23 20:47:48;;;;;;;3.65;1.50;;;;;;;;;;10280996;28;20041;-63
2021/08/23 20:52:46;;;;;;;4.75;1.85;;;;;;;;;;10298014;28;20526;-64
2021/08/23 20:57:43;;;;;;;7.10;1.50;;;;;;;;;;10274918;28;20033;-64
2021/08/23 21:02:41;;;;;;;5.63;1.77;;;;;;;;;;10301148;28;20036;-63
2021/08/23 21:07:38;;;;;;;3.70;1.97;;;;;;;;;;10294024;28;20048;-63
2021/08/23 21:12:36;;;;;;;1.87;0.27;;;;;;;;;;10287068;28;20030;-63
2021/08/23 21:17:34;;;;;;;1.50;0.77;;;;;;;;;;10277371;28;20124;-64
2021/08/23 21:22:31;;;;;;;1.20;0.50;;;;;;;;;;10294812;28;20033;-63
2021/08/23 21:27:29;;;;;;;0.63;0.40;;;;;;;;;;10298050;28;20048;-64
2021/08/23 21:32:26;;;;;;;2.33;0.93;;;;;;;;;;10285901;28;20088;-63
2021/08/23 21:37:23;;;;;;;3.17;0.43;;;;;;;;;;10309159;28;20034;-63
2021/08/23 21:42:21;;;;;;;0.30;0.23;;;;;;;;;;10296516;28;20025;-63
2021/08/23 21:47:18;;;;;;;1.10;0.57;;;;;;;;;;10263528;28;20037;-63
2021/08/23 21:52:16;;;;;;;0.60;0.60;;;;;;;;;;10281111;28;20045;-63
2021/08/23 21:57:13;;;;;;;5.45;0.98;;;;;;;;;;10300344;28;20477;-63
2021/08/23 22:02:11;;;;;;;0.77;0.57;;;;;;;;;;10297772;28;20057;-63
2021/08/23 22:07:08;;;;;;;1.03;1.00;;;;;;;;;;10293612;28;20045;-64
2021/08/23 22:12:06;;;;;;;8.87;2.27;;;;;;;;;;10277724;28;20042;-63
2021/08/23 22:17:04;;;;;;;4.38;2.17;;;;;;;;;;10287926;28;20491;-63
2021/08/23 22:22:02;;;;;;;3.67;1.67;;;;;;;;;;10310995;28;20033;-63
2021/08/23 22:26:59;;;;;;;6.63;1.98;;;;;;;;;;10249104;28;20270;-63
2021/08/23 22:31:57;;;;;;;7.50;2.03;;;;;;;;;;10266184;28;20034;-64
2021/08/23 22:36:54;;;;;;;5.40;2.43;;;;;;;;;;10274925;28;20518;-64
2021/08/23 22:41:51;;;;;;;7.87;2.83;;;;;;;;;;10273091;28;20197;-63
2021/08/23 22:46:49;;;;;;;4.73;2.33;;;;;;;;;;10268196;28;20037;-64
2021/08/23 22:51:46;;;;;;;4.33;2.17;;;;;;;;;;10274537;28;20577;-64
2021/08/23 22:56:44;;;;;;;4.53;2.13;;;;;;;;;;10300826;28;20440;-64
2021/08/23 23:01:41;;;;;;;6.63;2.40;;;;;;;;;;10288461;28;20407;-63
2021/08/23 23:06:38;;;;;;;3.63;1.70;;;;;;;;;;10296472;28;20369;-63
2021/08/23 23:11:36;;;;;;;5.27;2.10;;;;;;;;;;10297577;28;20073;-63
2021/08/23 23:16:33;;;;;;;2.33;1.27;;;;;;;;;;10284780;28;20034;-62
2021/08/23 23:21:31;;;;;;;4.63;2.13;;;;;;;;;;10286693;23;20046;-68
2021/08/23 23:26:30;;;;;;;3.37;2.27;;;;;;;;;;10335385;28;20140;-67
2021/08/23 23:31:27;;;;;;;4.80;2.17;;;;;;;;;;10307103;28;20041;-66
2021/08/23 23:36:25;;;;;;;7.15;2.50;;;;;;;;;;10262478;28;20119;-68
2021/08/23 23:41:23;;;;;;;3.72;1.98;;;;;;;;;;10304771;28;20034;-66
2021/08/23 23:46:20;;;;;;;5.13;2.63;;;;;;;;;;10276107;28;20045;-68
2021/08/23 23:51:17;;;;;;;6.40;2.70;;;;;;;;;;10264490;28;20567;-67
2021/08/23 23:56:15;;;;;;;6.47;2.90;;;;;;;;;;10269912;28;20044;-68
